Time;durP1;ratioP1;P1;durP2;ratioP2;P2;SDS_P1;SDS_P2;PMS_P1;PMS_P2;Temp;Humidity;BMP_temperature;BMP_pressure;BME280_temperature;BME280_humidity;BME280_pressure;Samples;Min_cycle;Max_cycle;Signal;HPM_P1;HPM_P2
2023/02/22 00:00:28;;;;;;;6.53;3.90;;;6.00;99.90;;;;;;5032306;28;20225;-61
2023/02/22 00:02:58;;;;;;;7.73;4.43;;;6.10;99.90;;;;;;5032222;28;20214;-61
2023/02/22 00:05:26;;;;;;;7.50;4.27;;;6.10;99.90;;;;;;5032166;28;20226;-60
2023/02/22 00:07:55;;;;;;;6.20;4.47;;;6.10;99.90;;;;;;5032570;28;20284;-61
2023/02/22 00:10:24;;;;;;;9.33;4.27;;;6.10;99.90;;;;;;5032648;28;20237;-60
2023/02/22 00:12:53;;;;;;;7.00;4.57;;;6.10;99.90;;;;;;5031656;28;20206;-68
2023/02/22 00:15:22;;;;;;;7.93;4.70;;;6.10;99.90;;;;;;5023522;28;20209;-67
2023/02/22 00:17:49;;;;;;;6.67;4.40;;;6.00;99.90;;;;;;5029661;28;20222;-63
2023/02/22 00:20:17;;;;;;;6.47;4.53;;;6.00;99.90;;;;;;5032093;28;20206;-62
2023/02/22 00:22:46;;;;;;;6.37;4.10;;;6.10;99.90;;;;;;5032164;28;20210;-62
2023/02/22 00:25:14;;;;;;;7.03;4.17;;;6.00;99.90;;;;;;5031717;28;20845;-62
2023/02/22 00:27:42;;;;;;;6.83;4.67;;;6.00;99.90;;;;;;5032017;28;20767;-61
2023/02/22 00:30:13;;;;;;;6.80;4.43;;;6.00;99.90;;;;;;5031737;28;20213;-61
2023/02/22 00:32:40;;;;;;;6.43;4.60;;;6.00;99.90;;;;;;5032066;28;20209;-61
2023/02/22 00:35:08;;;;;;;6.83;4.47;;;6.00;99.90;;;;;;5031676;28;20627;-62
2023/02/22 00:37:35;;;;;;;5.73;4.27;;;6.10;99.90;;;;;;5031817;28;20258;-62
2023/02/22 00:40:07;;;;;;;6.90;4.53;;;6.10;99.90;;;;;;5031810;28;20241;-62
2023/02/22 00:42:33;;;;;;;7.07;4.40;;;6.10;99.90;;;;;;5031585;28;20753;-62
2023/02/22 00:45:02;;;;;;;5.63;3.83;;;6.10;99.90;;;;;;5031417;28;20706;-61
2023/02/22 00:47:29;;;;;;;5.87;3.80;;;6.10;99.90;;;;;;5031638;28;20318;-61
2023/02/22 00:49:56;;;;;;;5.20;3.90;;;6.10;99.90;;;;;;5031869;28;20276;-62
2023/02/22 00:52:22;;;;;;;6.13;3.70;;;6.00;99.90;;;;;;5031786;28;20245;-61
2023/02/22 00:54:49;;;;;;;4.77;3.80;;;6.00;99.90;;;;;;5031476;28;20217;-62
2023/02/22 00:57:16;;;;;;;7.13;3.60;;;5.80;99.90;;;;;;5031616;28;20276;-62
2023/02/22 00:59:42;;;;;;;6.50;4.17;;;5.70;99.90;;;;;;5031755;28;20214;-62
2023/02/22 01:02:10;;;;;;;5.33;3.70;;;5.70;99.90;;;;;;5031875;28;20210;-62
2023/02/22 01:04:37;;;;;;;6.13;3.97;;;5.70;99.90;;;;;;5031445;28;20222;-62
2023/02/22 01:07:04;;;;;;;6.97;3.83;;;5.70;99.90;;;;;;5031467;28;20683;-61
2023/02/22 01:09:31;;;;;;;7.80;4.07;;;5.70;99.90;;;;;;5034987;28;20228;-61
2023/02/22 01:11:58;;;;;;;5.20;3.73;;;5.70;99.90;;;;;;5035797;28;20202;-62
2023/02/22 01:14:26;;;;;;;5.80;4.00;;;5.70;99.90;;;;;;5035261;28;20206;-61
2023/02/22 01:16:53;;;;;;;5.13;4.10;;;5.70;99.90;;;;;;5035309;28;20647;-62
2023/02/22 01:19:22;;;;;;;5.90;3.57;;;5.70;99.90;;;;;;5035109;28;20742;-62
2023/02/22 01:21:49;;;;;;;6.37;3.93;;;5.60;99.90;;;;;;5035388;28;20268;-61
2023/02/22 01:24:17;;;;;;;7.03;4.20;;;5.60;99.90;;;;;;5035118;28;20604;-60
2023/02/22 01:26:49;;;;;;;6.40;4.30;;;5.40;99.90;;;;;;5035985;28;20616;-62
2023/02/22 01:29:17;;;;;;;8.63;3.97;;;5.20;99.90;;;;;;5035973;28;20678;-61
2023/02/22 01:31:50;;;;;;;6.07;4.10;;;5.00;99.90;;;;;;5035455;28;20583;-61
2023/02/22 01:34:17;;;;;;;5.70;3.77;;;5.00;99.90;;;;;;5035369;28;20248;-61
2023/02/22 01:36:45;;;;;;;8.33;4.10;;;5.00;99.90;;;;;;5035889;28;20202;-61
2023/02/22 01:39:11;;;;;;;6.17;4.13;;;5.00;99.90;;;;;;5035688;28;20230;-61
2023/02/22 01:41:38;;;;;;;5.83;4.57;;;5.10;99.90;;;;;;5037751;28;20206;-61
2023/02/22 01:44:26;;;;;;;5.70;3.90;;;5.10;99.90;;;;;;5038277;28;20222;-61
2023/02/22 01:46:53;;;;;;;6.73;4.27;;;5.10;99.90;;;;;;5037699;28;20660;-61
2023/02/22 01:49:21;;;;;;;9.17;4.00;;;5.10;99.90;;;;;;5037223;28;20210;-61
2023/02/22 01:51:52;;;;;;;6.80;4.20;;;5.10;99.90;;;;;;5034948;28;20213;-61
2023/02/22 01:54:24;;;;;;;7.37;4.47;;;5.10;99.90;;;;;;5034776;28;20209;-61
2023/02/22 01:56:59;;;;;;;6.73;4.03;;;5.10;99.90;;;;;;5034664;28;20210;-62
2023/02/22 01:59:31;;;;;;;8.10;4.37;;;5.10;99.90;;;;;;5034593;28;20259;-61
2023/02/22 02:01:59;;;;;;;5.10;3.80;;;5.10;99.90;;;;;;5034551;28;20220;-62
2023/02/22 02:04:26;;;;;;;8.40;4.77;;;5.20;99.90;;;;;;5034243;28;20226;-61
2023/02/22 02:07:04;;;;;;;5.73;4.33;;;5.30;99.90;;;;;;5034424;28;20272;-62
2023/02/22 02:09:36;;;;;;;6.10;4.23;;;5.40;99.90;;;;;;5034286;28;20249;-61
2023/02/22 02:12:05;;;;;;;5.50;4.60;;;5.50;99.90;;;;;;5034158;28;20206;-61
2023/02/22 02:14:32;;;;;;;7.13;4.13;;;5.60;99.90;;;;;;5033984;28;20202;-61
2023/02/22 02:17:01;;;;;;;6.60;4.53;;;5.60;99.90;;;;;;5034374;28;20213;-61
2023/02/22 02:19:38;;;;;;;6.60;4.63;;;5.70;99.90;;;;;;5032917;28;20293;-63
2023/02/22 02:22:18;;;;;;;7.07;4.60;;;5.80;99.90;;;;;;5034302;28;20213;-62
2023/02/22 02:25:29;;;;;;;6.10;4.60;;;5.80;99.90;;;;;;5033901;28;20225;-62
2023/02/22 02:28:26;;;;;;;5.43;4.47;;;5.80;99.90;;;;;;4992334;28;20333;-62
2023/02/22 02:31:26;;;;;;;8.63;4.77;;;5.60;99.90;;;;;;5034303;28;20677;-62
2023/02/22 02:34:00;;;;;;;8.93;4.63;;;5.50;99.90;;;;;;5033918;28;20202;-62
2023/02/22 02:36:32;;;;;;;6.30;4.87;;;5.50;99.90;;;;;;5034238;28;20214;-62
2023/02/22 02:39:06;;;;;;;7.53;5.20;;;5.60;99.90;;;;;;5033800;28;20235;-61
2023/02/22 02:41:36;;;;;;;6.90;4.80;;;5.70;99.90;;;;;;5036379;28;20190;-61
2023/02/22 02:44:11;;;;;;;7.87;4.93;;;5.70;99.90;;;;;;5034274;28;20206;-62
2023/02/22 02:46:44;;;;;;;6.80;5.00;;;5.80;99.90;;;;;;5033763;28;20661;-61
2023/02/22 02:49:16;;;;;;;7.77;5.00;;;5.90;99.90;;;;;;5033865;28;20241;-61
2023/02/22 02:51:47;;;;;;;7.90;5.00;;;6.00;99.90;;;;;;5033276;28;20670;-61
2023/02/22 02:54:15;;;;;;;9.47;5.67;;;6.00;99.90;;;;;;5033473;28;20256;-61
2023/02/22 02:56:42;;;;;;;11.83;5.50;;;6.00;99.90;;;;;;5033212;28;20214;-61
2023/02/22 02:59:25;;;;;;;7.20;5.00;;;6.10;99.90;;;;;;5033114;28;20257;-61
2023/02/22 03:02:00;;;;;;;10.03;5.40;;;6.10;99.90;;;;;;5033338;28;20257;-61
2023/02/22 03:04:44;;;;;;;8.57;4.90;;;6.10;99.90;;;;;;5032845;28;20236;-61
2023/02/22 03:07:31;;;;;;;14.93;5.57;;;6.10;99.90;;;;;;5033022;28;20714;-61
2023/02/22 03:10:12;;;;;;;8.00;5.10;;;6.10;99.90;;;;;;5033087;28;20264;-61
2023/02/22 03:12:45;;;;;;;7.00;5.27;;;6.00;99.90;;;;;;5032988;28;20212;-61
2023/02/22 03:15:23;;;;;;;8.77;5.63;;;6.00;99.90;;;;;;5032908;28;20666;-61
2023/02/22 03:17:56;;;;;;;7.60;5.40;;;6.00;99.90;;;;;;5032828;28;20239;-61
2023/02/22 03:20:31;;;;;;;7.07;4.70;;;6.20;99.90;;;;;;5032729;28;20682;-61
2023/02/22 03:23:03;;;;;;;10.00;5.60;;;6.20;99.90;;;;;;5032951;28;20190;-61
2023/02/22 03:25:34;;;;;;;7.67;5.17;;;6.20;99.90;;;;;;5032699;28;20233;-61
2023/02/22 03:28:06;;;;;;;6.10;5.13;;;6.20;99.90;;;;;;5032601;28;20717;-61
2023/02/22 03:30:37;;;;;;;7.93;5.63;;;6.20;99.90;;;;;;5032479;28;20212;-61
2023/02/22 03:33:09;;;;;;;6.33;5.10;;;6.10;99.90;;;;;;5032716;28;20210;-61
2023/02/22 03:35:40;;;;;;;8.63;5.50;;;6.00;99.90;;;;;;5032577;28;20252;-61
2023/02/22 03:38:11;;;;;;;7.03;4.83;;;5.90;99.90;;;;;;5032729;28;20317;-61
2023/02/22 03:40:42;;;;;;;9.53;5.40;;;5.90;99.90;;;;;;5032722;28;20206;-61
2023/02/22 03:43:13;;;;;;;8.43;4.90;;;5.90;99.90;;;;;;5032657;28;20214;-61
2023/02/22 03:45:42;;;;;;;8.17;5.40;;;5.80;99.90;;;;;;5032214;28;20313;-62
2023/02/22 03:48:19;;;;;;;8.03;5.50;;;5.80;99.90;;;;;;5032278;28;20237;-61
2023/02/22 03:50:49;;;;;;;8.87;5.43;;;5.80;99.90;;;;;;5032728;28;20202;-61
2023/02/22 03:53:18;;;;;;;8.17;5.30;;;5.80;99.90;;;;;;5032608;28;20206;-61
2023/02/22 03:55:46;;;;;;;7.70;5.50;;;5.80;99.90;;;;;;5032167;28;20244;-61
2023/02/22 03:58:15;;;;;;;11.67;6.00;;;5.80;99.90;;;;;;5032124;28;20736;-61
2023/02/22 04:00:43;;;;;;;9.40;6.20;;;5.80;99.90;;;;;;5032369;28;20276;-61
2023/02/22 04:03:10;;;;;;;7.37;5.57;;;5.70;99.90;;;;;;5032674;28;20579;-61
2023/02/22 04:05:37;;;;;;;7.63;5.67;;;5.70;99.90;;;;;;5032121;28;20276;-60
2023/02/22 04:08:05;;;;;;;7.97;5.33;;;5.80;99.90;;;;;;5032231;28;20226;-61
2023/02/22 04:10:33;;;;;;;7.23;5.17;;;5.80;99.90;;;;;;5033827;28;20245;-62
2023/02/22 04:12:59;;;;;;;9.27;5.60;;;5.80;99.90;;;;;;5033884;28;20717;-61
2023/02/22 04:15:26;;;;;;;6.53;5.50;;;5.90;99.90;;;;;;5033224;28;20202;-61
2023/02/22 04:17:53;;;;;;;9.77;6.20;;;5.90;99.90;;;;;;5033550;28;20230;-61
2023/02/22 04:20:24;;;;;;;8.63;5.60;;;6.00;99.90;;;;;;5032725;28;20217;-61
2023/02/22 04:22:52;;;;;;;7.87;5.40;;;6.00;99.90;;;;;;5032325;28;20220;-62
2023/02/22 04:25:20;;;;;;;8.23;5.77;;;6.00;99.90;;;;;;5031732;28;20245;-62
2023/02/22 04:27:47;;;;;;;9.43;5.83;;;6.10;99.90;;;;;;5031910;28;20226;-61
2023/02/22 04:30:13;;;;;;;7.10;5.20;;;5.90;99.90;;;;;;5032165;28;20256;-61
2023/02/22 04:32:40;;;;;;;8.00;5.57;;;5.70;99.90;;;;;;5032137;28;20237;-61
2023/02/22 04:35:07;;;;;;;7.40;5.50;;;5.70;99.90;;;;;;5031942;28;20685;-61
2023/02/22 04:37:34;;;;;;;10.70;6.23;;;5.60;99.90;;;;;;5031756;28;20640;-61
2023/02/22 04:40:01;;;;;;;8.60;6.43;;;5.70;99.90;;;;;;5032098;28;20256;-61
2023/02/22 04:42:29;;;;;;;13.77;7.53;;;5.80;99.90;;;;;;5031981;28;20206;-60
2023/02/22 04:44:56;;;;;;;9.13;6.63;;;5.90;99.90;;;;;;5035400;28;20670;-61
2023/02/22 04:47:22;;;;;;;10.00;7.10;;;5.90;99.90;;;;;;5035706;28;20281;-61
2023/02/22 04:49:49;;;;;;;7.47;5.90;;;6.00;99.90;;;;;;5035824;28;20268;-61
2023/02/22 04:52:16;;;;;;;8.10;6.10;;;6.00;99.90;;;;;;5035780;28;20214;-62
2023/02/22 04:54:43;;;;;;;11.40;6.63;;;6.00;99.90;;;;;;5035278;28;20218;-61
2023/02/22 04:57:09;;;;;;;8.10;5.77;;;6.00;99.90;;;;;;5035515;28;20914;-61
2023/02/22 04:59:37;;;;;;;10.87;5.73;;;6.10;99.90;;;;;;5035599;28;20210;-61
2023/02/22 05:02:04;;;;;;;9.97;5.97;;;6.10;99.90;;;;;;5035413;28;20252;-62
2023/02/22 05:04:31;;;;;;;8.47;5.97;;;6.20;99.90;;;;;;5035419;28;20210;-62
2023/02/22 05:06:58;;;;;;;7.20;5.47;;;6.20;99.90;;;;;;5035209;28;20710;-62
2023/02/22 05:09:24;;;;;;;9.20;5.87;;;6.20;99.90;;;;;;5035780;28;20293;-62
2023/02/22 05:11:51;;;;;;;8.07;5.53;;;6.20;99.90;;;;;;5035452;28;20210;-62
2023/02/22 05:14:18;;;;;;;8.50;6.13;;;6.20;99.90;;;;;;5034959;28;20689;-62
2023/02/22 05:16:48;;;;;;;8.37;5.70;;;6.20;99.90;;;;;;5035432;28;20619;-61
2023/02/22 05:19:15;;;;;;;8.43;6.30;;;6.30;99.90;;;;;;5035174;28;20214;-61
2023/02/22 05:21:41;;;;;;;7.07;5.63;;;6.30;99.90;;;;;;5035332;28;20419;-61
2023/02/22 05:24:08;;;;;;;9.90;7.03;;;6.30;99.90;;;;;;5034960;28;20207;-61
2023/02/22 05:26:35;;;;;;;9.23;6.43;;;6.30;99.90;;;;;;5035138;28;20234;-61
2023/02/22 05:29:01;;;;;;;9.40;6.53;;;6.40;99.90;;;;;;5035210;28;20230;-62
2023/02/22 05:31:28;;;;;;;10.80;6.37;;;6.40;99.90;;;;;;5034791;28;20690;-61
2023/02/22 05:33:57;;;;;;;8.53;5.73;;;6.40;99.90;;;;;;5034547;28;20552;-61
2023/02/22 05:36:23;;;;;;;7.43;5.90;;;6.40;99.90;;;;;;5035066;28;20253;-62
2023/02/22 05:38:50;;;;;;;10.63;6.23;;;6.40;99.90;;;;;;5034801;28;20234;-62
2023/02/22 05:41:17;;;;;;;7.60;5.43;;;6.40;99.90;;;;;;5034660;28;20206;-61
2023/02/22 05:43:43;;;;;;;9.73;5.10;;;6.40;99.90;;;;;;5034586;28;20666;-61
2023/02/22 05:46:10;;;;;;;11.70;8.87;;;6.40;99.90;;;;;;5034510;28;20226;-61
2023/02/22 05:48:37;;;;;;;13.97;8.10;;;6.40;99.90;;;;;;5034465;28;20253;-61
2023/02/22 05:51:06;;;;;;;51.20;30.33;;;6.40;99.90;;;;;;5034621;28;20206;-62
2023/02/22 05:53:33;;;;;;;12.37;8.60;;;6.40;99.90;;;;;;5034391;28;20210;-61
2023/02/22 05:55:59;;;;;;;19.70;11.40;;;6.40;99.90;;;;;;5034312;28;20202;-61
2023/02/22 05:58:26;;;;;;;9.63;5.57;;;6.40;99.90;;;;;;5034297;28;20222;-61
2023/02/22 06:00:53;;;;;;;16.43;9.77;;;6.40;99.90;;;;;;5034304;28;20452;-61
2023/02/22 06:03:20;;;;;;;8.17;5.60;;;6.40;99.90;;;;;;5034173;28;20214;-61
2023/02/22 06:05:47;;;;;;;10.90;7.03;;;6.40;99.90;;;;;;5033981;28;20569;-61
2023/02/22 06:08:16;;;;;;;7.87;5.93;;;6.40;99.90;;;;;;5034308;28;20280;-62
2023/02/22 06:10:43;;;;;;;8.83;6.03;;;6.40;99.90;;;;;;5034328;28;20297;-62
2023/02/22 06:13:10;;;;;;;7.87;5.63;;;6.40;99.90;;;;;;5034330;28;20213;-69
2023/02/22 06:15:36;;;;;;;7.77;5.87;;;6.30;99.90;;;;;;5034290;28;20206;-62
2023/02/22 06:18:04;;;;;;;14.67;6.00;;;6.30;99.90;;;;;;5034154;28;20226;-61
2023/02/22 06:20:32;;;;;;;9.77;6.27;;;6.30;99.90;;;;;;5034785;28;20210;-61
2023/02/22 06:22:58;;;;;;;11.73;5.83;;;6.30;99.90;;;;;;5034231;28;20248;-61
2023/02/22 06:25:30;;;;;;;13.37;6.50;;;6.30;99.90;;;;;;5034527;28;20206;-62
2023/02/22 06:27:56;;;;;;;18.87;7.90;;;6.30;99.90;;;;;;5034614;28;20301;-61
2023/02/22 06:30:25;;;;;;;15.60;8.30;;;6.30;99.90;;;;;;5034738;28;20210;-61
2023/02/22 06:32:52;;;;;;;10.33;6.27;;;6.30;99.90;;;;;;5035116;28;20233;-61
2023/02/22 06:35:19;;;;;;;12.87;6.03;;;6.40;99.90;;;;;;5034562;28;20212;-60
2023/02/22 06:37:45;;;;;;;10.07;5.97;;;6.40;99.90;;;;;;5034922;28;20290;-61
2023/02/22 06:40:13;;;;;;;9.13;5.40;;;6.50;99.90;;;;;;5034518;28;20214;-61
2023/02/22 06:42:41;;;;;;;18.07;6.50;;;6.60;99.90;;;;;;5033814;28;20205;-61
2023/02/22 06:45:09;;;;;;;11.27;6.67;;;6.60;99.90;;;;;;5033356;28;20694;-62
2023/02/22 06:47:39;;;;;;;10.27;6.13;;;6.70;99.90;;;;;;5032877;28;20702;-61
2023/02/22 06:50:06;;;;;;;10.47;5.87;;;6.80;99.90;;;;;;5032684;28;20296;-62
2023/02/22 06:52:33;;;;;;;11.30;5.93;;;6.80;99.90;;;;;;5032768;28;20268;-61
2023/02/22 06:54:59;;;;;;;8.77;5.93;;;6.80;99.90;;;;;;5032415;28;20213;-61
2023/02/22 06:57:26;;;;;;;9.40;5.87;;;6.90;99.90;;;;;;5032248;28;20241;-61
2023/02/22 06:59:54;;;;;;;9.63;6.50;;;7.00;99.90;;;;;;5032224;28;20647;-61
2023/02/22 07:02:21;;;;;;;10.17;6.40;;;7.10;99.90;;;;;;5032394;28;20569;-62
2023/02/22 07:04:47;;;;;;;8.90;6.30;;;7.20;99.90;;;;;;5032431;28;20210;-62
2023/02/22 07:07:14;;;;;;;10.07;5.90;;;7.40;99.90;;;;;;5031455;28;20226;-62
2023/02/22 07:09:41;;;;;;;17.17;10.73;;;7.70;99.90;;;;;;5032540;28;20202;-62
2023/02/22 07:12:08;;;;;;;9.53;6.47;;;7.90;99.90;;;;;;5031853;28;20222;-61
2023/02/22 07:14:34;;;;;;;11.03;6.50;;;8.00;99.90;;;;;;5032061;28;20213;-60
2023/02/22 07:17:03;;;;;;;7.43;6.23;;;8.10;99.90;;;;;;5032276;28;20202;-66
2023/02/22 07:19:29;;;;;;;9.40;5.63;;;8.50;99.90;;;;;;5032148;28;20254;-61
2023/02/22 07:21:57;;;;;;;9.67;5.63;;;8.90;99.90;;;;;;5032094;28;20206;-60
2023/02/22 07:24:25;;;;;;;7.33;5.57;;;9.40;99.90;;;;;;5031682;28;20264;-60
2023/02/22 07:26:52;;;;;;;9.83;6.07;;;9.70;99.90;;;;;;5031749;28;20230;-61
2023/02/22 07:29:21;;;;;;;10.07;6.13;;;10.10;99.90;;;;;;5032474;28;20214;-60
2023/02/22 07:31:48;;;;;;;6.33;5.27;;;10.70;99.90;;;;;;5032940;28;20212;-60
2023/02/22 07:34:16;;;;;;;8.50;5.77;;;11.10;99.90;;;;;;5033558;28;20206;-60
2023/02/22 07:36:43;;;;;;;9.53;5.73;;;11.20;99.90;;;;;;5033997;28;20211;-61
2023/02/22 07:39:10;;;;;;;10.33;6.33;;;11.00;99.90;;;;;;5034684;28;20253;-61
2023/02/22 07:41:37;;;;;;;12.30;6.97;;;10.80;99.90;;;;;;5035269;28;20210;-60
2023/02/22 07:44:04;;;;;;;11.97;7.83;;;10.60;99.90;;;;;;5033762;28;20202;-60
2023/02/22 07:46:31;;;;;;;32.33;18.43;;;10.60;99.90;;;;;;5031973;28;20712;-62
2023/02/22 07:48:57;;;;;;;24.47;13.37;;;10.60;99.90;;;;;;4995528;28;1054484;-60
2023/02/22 07:51:25;;;;;;;17.87;10.37;;;10.60;99.90;;;;;;5032215;28;20205;-61
2023/02/22 07:53:52;;;;;;;19.37;12.43;;;10.60;99.90;;;;;;5032251;28;20201;-61
2023/02/22 07:56:19;;;;;;;13.87;8.70;;;10.60;99.90;;;;;;5032181;28;20206;-61
2023/02/22 07:58:46;;;;;;;11.83;7.00;;;10.60;99.90;;;;;;5032347;28;20232;-61
2023/02/22 08:01:13;;;;;;;12.87;7.53;;;10.40;99.90;;;;;;5032165;28;20206;-61
2023/02/22 08:03:40;;;;;;;12.10;7.40;;;10.50;99.90;;;;;;5032151;28;20206;-60
2023/02/22 08:06:07;;;;;;;12.43;7.70;;;10.60;99.90;;;;;;5031778;28;20709;-60
2023/02/22 08:08:35;;;;;;;10.87;7.33;;;10.60;99.90;;;;;;5032326;28;20229;-60
2023/02/22 08:11:03;;;;;;;9.47;6.87;;;10.70;99.90;;;;;;5031880;28;20728;-60
2023/02/22 08:13:29;;;;;;;11.70;7.10;;;10.70;99.90;;;;;;5032105;28;20208;-61
2023/02/22 08:15:56;;;;;;;11.67;7.70;;;10.60;99.90;;;;;;5031863;28;20341;-60
2023/02/22 08:18:24;;;;;;;10.37;6.13;;;10.70;99.90;;;;;;5031026;28;20276;-61
2023/02/22 08:20:52;;;;;;;9.20;5.73;;;10.70;99.90;;;;;;5032094;28;20296;-61
2023/02/22 08:23:21;;;;;;;8.50;5.63;;;10.50;99.90;;;;;;5032050;28;20209;-61
2023/02/22 08:25:49;;;;;;;9.53;4.90;;;10.50;99.90;;;;;;5031629;28;20206;-60
2023/02/22 08:28:20;;;;;;;7.83;4.97;;;10.60;99.90;;;;;;5031747;28;20222;-60
2023/02/22 08:30:47;;;;;;;8.17;5.07;;;10.70;99.90;;;;;;5031751;28;20241;-61
2023/02/22 08:33:17;;;;;;;6.03;5.10;;;10.60;99.90;;;;;;5031655;28;20202;-61
2023/02/22 08:35:45;;;;;;;8.80;5.40;;;10.50;99.90;;;;;;5031600;28;20224;-60
2023/02/22 08:38:18;;;;;;;8.07;5.47;;;10.50;99.90;;;;;;5032005;28;20253;-61
2023/02/22 08:40:44;;;;;;;6.10;5.43;;;10.50;99.90;;;;;;5031949;28;20260;-61
2023/02/22 08:43:13;;;;;;;8.10;5.43;;;10.50;99.90;;;;;;5031711;28;20225;-62
2023/02/22 08:45:40;;;;;;;8.17;5.30;;;10.60;99.90;;;;;;5031197;28;20210;-61
2023/02/22 08:48:06;;;;;;;8.83;5.40;;;10.90;99.90;;;;;;5031776;28;20234;-60
2023/02/22 08:50:34;;;;;;;6.40;5.67;;;10.90;99.90;;;;;;5031993;28;20233;-60
2023/02/22 08:53:02;;;;;;;8.17;5.87;;;10.80;99.90;;;;;;5031782;28;20264;-60
2023/02/22 08:55:32;;;;;;;10.60;6.03;;;11.00;99.90;;;;;;5031552;28;20210;-59
2023/02/22 08:58:00;;;;;;;13.00;5.83;;;11.10;99.90;;;;;;5032454;28;20718;-60
2023/02/22 09:00:31;;;;;;;11.23;5.80;;;11.30;99.90;;;;;;5031862;28;20216;-60
2023/02/22 09:02:59;;;;;;;11.53;5.87;;;11.30;99.90;;;;;;5031816;28;20589;-60
2023/02/22 09:05:25;;;;;;;7.47;5.47;;;11.40;99.90;;;;;;5031504;28;20210;-60
2023/02/22 09:07:52;;;;;;;9.17;5.70;;;11.60;99.90;;;;;;5031187;28;20261;-59
2023/02/22 09:10:23;;;;;;;10.70;5.67;;;11.80;99.90;;;;;;5031484;28;20206;-58
2023/02/22 09:12:50;;;;;;;9.90;5.63;;;12.00;99.90;;;;;;5031317;28;20237;-62
2023/02/22 09:15:17;;;;;;;8.73;5.57;;;12.20;99.90;;;;;;5031279;28;20209;-58
2023/02/22 09:17:45;;;;;;;6.97;5.50;;;12.20;99.90;;;;;;5031125;28;20230;-58
2023/02/22 09:20:13;;;;;;;7.77;5.93;;;12.00;99.90;;;;;;5031366;28;20202;-58
2023/02/22 09:22:40;;;;;;;9.13;5.30;;;12.10;99.90;;;;;;5031155;28;20214;-58
2023/02/22 09:25:07;;;;;;;8.63;5.63;;;12.20;99.90;;;;;;5030746;28;20233;-60
2023/02/22 09:27:34;;;;;;;7.63;5.77;;;12.40;99.90;;;;;;5030923;28;20237;-59
2023/02/22 09:30:02;;;;;;;6.67;5.23;;;12.40;99.90;;;;;;5033930;28;20268;-59
2023/02/22 09:32:29;;;;;;;9.97;5.77;;;12.40;99.90;;;;;;5034831;28;20217;-60
2023/02/22 09:34:57;;;;;;;7.03;5.90;;;12.30;99.90;;;;;;5034333;28;20206;-59
2023/02/22 09:37:24;;;;;;;6.90;5.67;;;12.20;99.90;;;;;;5034585;28;20232;-60
2023/02/22 09:39:51;;;;;;;7.47;5.40;;;12.30;99.90;;;;;;5034638;28;20206;-59
2023/02/22 09:42:26;;;;;;;7.53;5.77;;;12.50;99.90;;;;;;5034668;28;20249;-58
2023/02/22 09:44:58;;;;;;;14.87;10.10;;;12.70;99.90;;;;;;5034482;28;20216;-60
2023/02/22 09:47:38;;;;;;;8.97;5.60;;;12.90;99.90;;;;;;5034306;28;20226;-58
2023/02/22 09:50:14;;;;;;;8.90;5.60;;;12.90;99.90;;;;;;5034451;28;20210;-58
2023/02/22 09:52:47;;;;;;;13.20;6.00;;;12.80;99.90;;;;;;5034281;28;20555;-60
2023/02/22 09:55:27;;;;;;;10.73;5.40;;;12.80;99.90;;;;;;5034160;28;20210;-58
2023/02/22 09:57:57;;;;;;;9.23;5.77;;;12.90;99.90;;;;;;5034149;28;20230;-58
2023/02/22 10:00:32;;;;;;;7.80;5.50;;;13.00;99.90;;;;;;5034349;28;20206;-58
2023/02/22 10:03:14;;;;;;;10.60;5.93;;;13.10;99.90;;;;;;5034102;28;20210;-58
2023/02/22 10:05:45;;;;;;;8.67;5.73;;;13.20;99.90;;;;;;5034174;28;20202;-59
2023/02/22 10:08:14;;;;;;;10.63;6.30;;;13.50;99.90;;;;;;5033887;28;20605;-58
2023/02/22 10:10:44;;;;;;;8.13;5.77;;;13.80;99.90;;;;;;5033963;28;20728;-58
2023/02/22 10:13:22;;;;;;;8.63;5.77;;;14.00;99.90;;;;;;5034058;28;20210;-58
2023/02/22 10:15:57;;;;;;;9.43;6.43;;;14.30;99.90;;;;;;5033769;28;20279;-58
2023/02/22 10:18:46;;;;;;;11.30;6.07;;;14.50;99.90;;;;;;5033814;28;20581;-61
2023/02/22 10:21:28;;;;;;;12.70;6.50;;;14.80;99.90;;;;;;5033921;28;20210;-58
2023/02/22 10:24:04;;;;;;;8.97;6.40;;;15.00;99.90;;;;;;5033740;28;20643;-57
2023/02/22 10:26:36;;;;;;;11.30;6.27;;;14.90;99.90;;;;;;5033655;28;20531;-58
2023/02/22 10:29:10;;;;;;;12.33;6.60;;;14.80;99.90;;;;;;5033723;28;20276;-59
2023/02/22 10:31:42;;;;;;;7.90;6.00;;;14.80;99.90;;;;;;5033659;28;20209;-59
2023/02/22 10:34:14;;;;;;;10.13;6.30;;;14.80;99.90;;;;;;5033630;28;20217;-59
2023/02/22 10:36:43;;;;;;;12.27;7.50;;;14.80;99.90;;;;;;5033204;28;20607;-59
2023/02/22 10:39:20;;;;;;;12.47;7.00;;;15.00;99.90;;;;;;5033702;28;20226;-58
2023/02/22 10:41:51;;;;;;;10.20;6.67;;;15.20;99.90;;;;;;5032800;28;20271;-59
2023/02/22 10:44:18;;;;;;;11.30;7.20;;;15.40;99.90;;;;;;5033535;28;20210;-59
2023/02/22 10:46:45;;;;;;;8.13;6.20;;;15.50;99.90;;;;;;5032812;28;20214;-59
2023/02/22 10:49:16;;;;;;;8.83;6.20;;;15.70;99.90;;;;;;5033403;28;20680;-59
2023/02/22 10:51:45;;;;;;;7.67;5.50;;;15.90;99.90;;;;;;5033427;28;20234;-60
2023/02/22 10:54:25;;;;;;;10.20;6.60;;;16.20;99.90;;;;;;5033196;28;20214;-59
2023/02/22 10:56:54;;;;;;;9.60;6.00;;;16.40;99.90;;;;;;5033252;28;20582;-59
2023/02/22 10:59:31;;;;;;;7.70;5.82;;;16.70;99.90;;;;;;5033095;28;20241;-60
2023/02/22 11:01:58;;;;;;;10.13;5.35;;;16.90;99.90;;;;;;5033166;28;20735;-59
2023/02/22 11:04:26;;;;;;;7.80;5.75;;;16.90;99.90;;;;;;5033100;28;20202;-60
2023/02/22 11:07:10;;;;;;;10.63;5.53;;;17.00;99.90;;;;;;5033251;28;20206;-59
2023/02/22 11:09:49;;;;;;;10.27;5.22;;;17.00;99.90;;;;;;5033298;28;20206;-62
2023/02/22 11:12:19;;;;;;;9.77;5.75;;;17.10;99.90;;;;;;5033417;28;20252;-59
2023/02/22 11:14:46;;;;;;;7.13;4.95;;;17.10;99.90;;;;;;5033471;28;20202;-59
2023/02/22 11:17:19;;;;;;;7.13;5.60;;;17.20;99.90;;;;;;5033592;28;20637;-60
2023/02/22 11:19:47;;;;;;;8.02;5.63;;;17.30;99.90;;;;;;5033296;28;20583;-59
2023/02/22 11:22:23;;;;;;;8.73;5.25;;;17.40;99.90;;;;;;5033087;28;20237;-59
2023/02/22 11:24:53;;;;;;;8.00;5.53;;;17.40;99.90;;;;;;5032513;28;20685;-58
2023/02/22 11:27:30;;;;;;;10.35;5.60;;;17.40;99.90;;;;;;5032793;28;20230;-58
2023/02/22 11:30:08;;;;;;;7.43;5.35;;;17.20;99.90;;;;;;5033439;28;20588;-59
2023/02/22 11:32:35;;;;;;;7.28;5.38;;;17.20;99.90;;;;;;5033081;28;20210;-58
2023/02/22 11:35:29;;;;;;;7.30;5.50;;;17.40;99.90;;;;;;5033065;28;20206;-59
2023/02/22 11:38:19;;;;;;;7.13;5.15;;;17.30;99.90;;;;;;5032831;28;20638;-59
2023/02/22 11:40:47;;;;;;;7.30;6.00;;;17.00;99.90;;;;;;5032286;28;20233;-60
2023/02/22 11:43:18;;;;;;;9.45;5.88;;;16.90;99.90;;;;;;5032698;28;20206;-62
2023/02/22 11:46:02;;;;;;;11.30;5.88;;;16.90;99.90;;;;;;5031898;28;20670;-59
2023/02/22 11:48:30;;;;;;;10.35;6.07;;;16.60;99.90;;;;;;5030811;28;20230;-59
2023/02/22 11:51:15;;;;;;;7.35;5.65;;;16.70;99.90;;;;;;5031999;28;20701;-58
2023/02/22 11:54:04;;;;;;;7.35;5.43;;;16.70;99.90;;;;;;5032854;28;20206;-63
2023/02/22 11:56:38;;;;;;;10.73;5.90;;;16.80;99.90;;;;;;5032468;28;20210;-58
2023/02/22 11:59:19;;;;;;;9.30;6.20;;;17.00;99.90;;;;;;5032654;28;20236;-59
2023/02/22 12:01:51;;;;;;;8.98;5.80;;;16.90;99.90;;;;;;5032777;28;20297;-60
2023/02/22 12:04:55;;;;;;;7.90;5.93;;;16.90;99.90;;;;;;5032679;28;20238;-61
2023/02/22 12:07:37;;;;;;;10.32;6.18;;;17.00;99.90;;;;;;4990654;28;20227;-62
2023/02/22 12:10:18;;;;;;;11.43;6.05;;;17.20;99.90;;;;;;5029073;28;20241;-62
2023/02/22 12:12:58;;;;;;;8.75;6.43;;;17.40;99.90;;;;;;5033204;28;20213;-63
2023/02/22 12:15:31;;;;;;;9.68;6.32;;;17.40;99.90;;;;;;5032023;28;20213;-64
2023/02/22 12:18:07;;;;;;;8.50;6.78;;;17.50;99.90;;;;;;5032401;28;20218;-59
2023/02/22 12:20:39;;;;;;;8.75;6.50;;;17.70;99.90;;;;;;5031767;28;20206;-60
2023/02/22 12:23:18;;;;;;;7.45;6.53;;;17.80;99.90;;;;;;5031802;28;20701;-58
2023/02/22 12:25:57;;;;;;;9.32;5.22;;;17.90;99.90;;;;;;5031783;28;20232;-61
2023/02/22 12:28:29;;;;;;;8.57;5.85;;;17.80;99.90;;;;;;5031569;28;20233;-59
2023/02/22 12:31:07;;;;;;;8.80;5.68;;;17.50;99.90;;;;;;5031693;28;20701;-59
2023/02/22 12:33:43;;;;;;;7.78;5.78;;;17.60;99.90;;;;;;5032139;28;20206;-60
2023/02/22 12:36:13;;;;;;;8.73;5.50;;;17.50;99.90;;;;;;5031463;28;20561;-59
2023/02/22 12:38:44;;;;;;;9.73;7.80;;;17.40;99.90;;;;;;5031591;28;20218;-59
2023/02/22 12:41:20;;;;;;;8.77;5.95;;;17.40;99.90;;;;;;5031641;28;20631;-59
2023/02/22 12:43:54;;;;;;;6.60;5.70;;;17.50;99.90;;;;;;5031773;28;20592;-59
2023/02/22 12:46:26;;;;;;;6.82;5.75;;;17.70;99.90;;;;;;5031522;28;20212;-59
2023/02/22 12:48:59;;;;;;;8.52;5.68;;;17.60;99.90;;;;;;5031219;28;20744;-59
2023/02/22 12:51:31;;;;;;;6.45;5.40;;;17.60;99.90;;;;;;5031656;28;20268;-60
2023/02/22 12:54:05;;;;;;;10.18;6.03;;;17.60;99.90;;;;;;5031816;28;20198;-60
2023/02/22 12:56:38;;;;;;;6.68;5.25;;;17.70;99.90;;;;;;5031468;28;20210;-60
2023/02/22 12:59:11;;;;;;;7.93;5.25;;;17.80;99.90;;;;;;5031501;28;20230;-58
2023/02/22 13:01:40;;;;;;;13.20;6.90;;;17.70;99.90;;;;;;5031684;28;20210;-60
2023/02/22 13:04:08;;;;;;;7.10;5.22;;;17.70;99.90;;;;;;5032384;28;20721;-59
2023/02/22 13:06:45;;;;;;;7.50;5.45;;;17.60;99.90;;;;;;5035122;28;20288;-59